Huron Regional Airport
KHON : rendu visible

Aérodrome :











RETROUVEZ-NOUS SUR...

 
LOGIN :

S'inscrire | Disclaimer

   EN    FR    IT 

 









Légende :    VFR   VFR Marginal   IFR   IFR Intensif   IFR Très Intensif
Visi : 
Plafond : 
>= 8 km
>= 3000ft
5 à 8 km
1000 à 3000 ft
1500m à 5 km
500 à 1000 ft
800 à 1500m
200 à 500 ft
< 800m
< 200 ft
Symboles :   Orages  Brouillard  Fortes neiges  Fortes précipitations  Vent > 20 kt






- Altitude de l'aérodrome : 1289 ft
- Code IATA : HON


KHON - Huron Regional

DERNIER METAR :
  • 281255Z AUTO 34008KT 10SM CLR 17/11 A3009 RMK AO2 SLP185 T01670111

METARs EXPIRÉS :
  • 281155Z AUTO 31007KT 10SM CLR 15/13 A3008 RMK AO2 SLP181 60000 T01500133 10200 20139 53012
  • 281055Z AUTO 32008KT 10SM CLR 14/13 A3007 RMK AO2 SLP175 T01390133

TAF KHON
Valide du 28 à 12h jusqu'au 29 à 12h UTC


281120Z 2812/2912 33009KT P6SM FEW100
FM281500 34012G18KT P6SM FEW250
FM281700 33015G22KT P6SM FEW250
FM290200 33009KT P6SM SKC
FIR KZMP / Amérique du Nord



MET'MAP, la Météo Aéronautique d'un coup d'oeil ! - Copyright ORBIFLY Décembre 2007 - Disclaimer

ORBIFLY MET'MAP TEAM :

Programmation & Développement : Alexandra Zaïnal
Sur une idée originale de : Baudouin d'Aumeries
Assistance à la programmation : Marc-Olivier Méhu
Soutien technique & logistique : Manuel Goepfert

Contact : metmap@orbifly.com




SOURCES & CREDITS :

   NOAA       Earth
Advisory